Time;durP1;ratioP1;P1;durP2;ratioP2;P2;SDS_P1;SDS_P2;PMS_P1;PMS_P2;Temp;Humidity;BMP_temperature;BMP_pressure;BME280_temperature;BME280_humidity;BME280_pressure;Samples;Min_cycle;Max_cycle;Signal;HPM_P1;HPM_P2
2023/03/18 00:08:04;;;;;;;361.80;326.58;;;;;;;21.73;42.78;100801.75;20516243;28;20043;-76
2023/03/18 00:18:05;;;;;;;393.42;355.13;;;;;;;21.71;42.38;100793.09;20526494;28;20138;-78
2023/03/18 00:28:06;;;;;;;366.58;331.00;;;;;;;21.68;42.65;100790.72;20518998;28;20043;-81
2023/03/18 00:38:08;;;;;;;381.70;344.42;;;;;;;21.65;43.09;100783.00;20510602;28;20054;-74
2023/03/18 00:48:09;;;;;;;392.30;354.15;;;;;;;21.65;42.40;100782.19;20516491;28;20585;-80
2023/03/18 00:58:12;;;;;;;357.85;323.20;;;;;;;21.63;43.17;100768.25;20520021;28;20441;-81
2023/03/18 01:08:12;;;;;;;383.13;345.93;;;;;;;21.61;42.95;100768.38;20514614;28;20485;-81
2023/03/18 01:18:13;;;;;;;671.42;611.55;;;;;;;21.57;42.18;100761.66;20517915;28;20046;-80
2023/03/18 01:28:14;;;;;;;690.58;629.42;;;;;;;21.58;42.17;100748.38;20513361;28;20174;-75
2023/03/18 01:38:15;;;;;;;671.45;611.80;;;;;;;21.54;42.27;100738.13;20510286;28;20054;-80
2023/03/18 01:48:18;;;;;;;665.85;606.55;;;;;;;21.51;42.79;100735.75;20516946;28;20037;-75
2023/03/18 01:58:24;;;;;;;656.03;597.47;;;;;;;21.52;42.44;100729.50;20521490;28;20067;-80
2023/03/18 02:08:24;;;;;;;672.63;612.90;;;;;;;21.48;42.94;100731.50;20532559;28;20038;-76
2023/03/18 02:18:35;;;;;;;650.72;592.45;;;;;;;21.46;42.42;100714.13;20527993;28;20053;-78
2023/03/18 02:28:37;;;;;;;630.65;573.88;;;;;;;21.44;42.23;100715.09;20527991;28;20140;-80
2023/03/18 02:38:45;;;;;;;660.72;601.85;;;;;;;21.39;42.43;100719.03;20532968;28;20039;-80
2023/03/18 02:48:48;;;;;;;646.47;588.50;;;;;;;21.38;42.61;100718.16;20527494;28;20043;-79
2023/03/18 02:58:49;;;;;;;658.08;599.25;;;;;;;21.35;42.29;100728.09;20530586;28;20090;-79
2023/03/18 03:08:50;;;;;;;631.78;575.03;;;;;;;21.34;42.60;100731.69;20526434;28;20043;-79
2023/03/18 03:18:51;;;;;;;668.05;608.80;;;;;;;21.32;42.81;100741.50;20519385;28;20047;-79
2023/03/18 03:28:51;;;;;;;689.38;628.42;;;;;;;21.30;42.41;100738.97;20531753;28;20046;-81
2023/03/18 03:38:51;;;;;;;712.28;649.83;;;;;;;21.31;42.52;100747.72;20535789;28;20057;-82
2023/03/18 03:48:52;;;;;;;726.63;663.17;;;;;;;21.28;42.71;100756.69;20523041;28;20047;-82
2023/03/18 03:58:52;;;;;;;753.42;688.17;;;;;;;21.22;42.41;100757.94;20525117;28;20043;-80
2023/03/18 04:08:53;;;;;;;885.92;811.78;;;;;;;21.22;42.18;100754.50;20519379;28;20078;-78
2023/03/18 04:18:53;;;;;;;917.65;841.78;;;;;;;21.21;42.53;100761.53;20520459;28;20038;-81
2023/03/18 04:28:53;;;;;;;1080.50;992.58;;;;;;;21.19;42.61;100763.47;20518498;28;20039;-81
2023/03/18 04:38:55;;;;;;;659.97;601.55;;;;;;;21.17;42.48;100773.25;20523981;28;20047;-81
2023/03/18 04:48:57;;;;;;;708.67;646.58;;;;;;;21.15;42.23;100779.56;20518024;28;20153;-79
2023/03/18 04:58:57;;;;;;;717.35;654.63;;;;;;;21.13;42.54;100782.31;20515753;28;21029;-77
2023/03/18 05:08:59;;;;;;;701.35;639.80;;;;;;;21.12;42.29;100791.16;20515284;28;20042;-80
2023/03/18 05:19:00;;;;;;;704.70;642.70;;;;;;;21.24;42.44;100795.56;20510815;28;20075;-73
2023/03/18 05:29:01;;;;;;;368.55;331.48;;;;;;;20.69;38.37;100797.63;20505116;28;20047;-78
2023/03/18 05:39:02;;;;;;;374.52;338.33;;;;;;;21.03;41.11;100800.56;20538320;28;20058;-78
2023/03/18 05:49:02;;;;;;;334.35;302.00;;;;;;;21.23;41.79;100807.03;20529797;28;20058;-78
2023/03/18 05:59:05;;;;;;;362.30;327.25;;;;;;;21.35;42.25;100807.97;20527097;28;20061;-80
2023/03/18 06:09:10;;;;;;;358.60;324.02;;;;;;;21.00;37.97;100818.38;20527116;28;20454;-77
2023/03/18 06:19:12;;;;;;;351.02;317.20;;;;;;;21.32;40.04;100817.88;20529551;28;20066;-79
2023/03/18 06:29:15;;;;;;;328.25;296.50;;;;;;;21.46;41.34;100827.44;20525690;28;20580;-79
2023/03/18 06:39:15;;;;;;;;;;;;;;;21.53;41.00;100834.78;20531900;28;20039;-77
2023/03/18 06:49:16;;;;;;;329.55;297.40;;;;;;;21.63;42.33;100840.28;20531153;28;19929;-75
2023/03/18 06:59:18;;;;;;;315.95;285.52;;;;;;;21.69;42.79;100857.41;20520473;28;20047;-77
2023/03/18 07:09:18;;;;;;;373.40;336.90;;;;;;;21.78;43.11;100863.84;20509911;28;20050;-75
2023/03/18 07:19:18;;;;;;;435.90;392.45;;;;;;;21.83;42.66;100854.63;20532989;28;20043;-77
2023/03/18 07:29:19;;;;;;;468.35;422.40;;;;;;;21.88;42.47;100868.31;20521841;28;20134;-77
2023/03/18 07:39:20;;;;;;;430.58;387.77;;;;;;;21.93;42.60;100861.88;20532461;28;20043;-77
2023/03/18 07:49:20;;;;;;;449.13;404.58;;;;;;;21.96;42.46;100865.13;20520374;28;20058;-78
2023/03/18 07:59:21;;;;;;;502.08;453.58;;;;;;;22.01;42.99;100878.00;20517440;28;20057;-77
2023/03/18 08:09:21;;;;;;;501.25;453.17;;;;;;;22.02;42.75;100875.22;20499527;28;20138;-78
2023/03/18 08:19:22;;;;;;;493.67;445.85;;;;;;;22.06;43.29;100865.31;20517141;28;20537;-77
2023/03/18 08:29:25;;;;;;;466.30;416.73;;;;;;;22.07;42.98;100865.19;20515506;28;20436;-75
2023/03/18 08:39:27;;;;;;;677.78;616.20;;;;;;;21.95;39.07;100859.94;20502271;28;20117;-77
2023/03/18 08:49:28;;;;;;;1106.47;999.90;;;;;;;22.00;40.33;100853.41;20499208;28;20039;-76
2023/03/18 08:59:29;;;;;;;648.70;587.55;;;;;;;22.00;40.78;100855.22;20514211;28;20046;-78
2023/03/18 09:09:29;;;;;;;480.17;433.48;;;;;;;22.03;39.06;100844.41;20527090;28;20122;-81
2023/03/18 09:19:31;;;;;;;509.17;460.58;;;;;;;21.98;37.30;100844.75;20518555;28;20043;-76
2023/03/18 09:29:31;;;;;;;535.43;484.73;;;;;;;21.97;36.40;100834.31;20510095;28;20130;-77
2023/03/18 09:39:32;;;;;;;658.15;599.25;;;;;;;21.95;35.62;100825.69;20518031;28;20412;-79
2023/03/18 09:49:58;;;;;;;783.13;715.17;;;;;;;21.96;34.81;100822.09;20519093;28;20050;-78
2023/03/18 10:00:27;;;;;;;1080.57;994.17;;;;;;;21.96;34.16;100817.69;20512066;28;20046;-78
2023/03/18 10:10:37;;;;;;;752.28;685.55;;;;;;;21.96;33.03;100808.91;20507956;28;20048;-76
2023/03/18 10:20:55;;;;;;;742.97;677.80;;;;;;;22.00;33.04;100807.75;20521723;28;20051;-77
2023/03/18 10:30:59;;;;;;;822.30;751.58;;;;;;;21.93;32.77;100809.97;20524499;28;20096;-76
2023/03/18 10:41:00;;;;;;;1166.88;999.90;;;;;;;22.05;33.21;100795.06;20508181;28;20055;-73
2023/03/18 10:51:00;;;;;;;1140.22;999.90;;;;;;;22.15;34.13;100777.56;20523405;28;20049;-74
2023/03/18 11:01:01;;;;;;;1180.22;999.90;;;;;;;22.33;36.60;100771.88;20516646;28;20803;-72
2023/03/18 11:11:19;;;;;;;1191.33;999.90;;;;;;;22.53;37.61;100760.66;20515561;28;20529;-69
2023/03/18 11:21:20;;;;;;;751.17;684.17;;;;;;;22.62;39.35;100758.25;20515283;28;20339;-75
2023/03/18 11:31:21;;;;;;;764.22;695.90;;;;;;;22.75;40.90;100735.19;20508326;28;20138;-72
2023/03/18 11:41:24;;;;;;;810.95;739.15;;;;;;;22.89;42.33;100728.84;20509648;28;20047;-72
2023/03/18 11:51:38;;;;;;;826.42;753.53;;;;;;;23.04;43.00;100721.50;20498145;28;20046;-70
2023/03/18 12:01:44;;;;;;;902.88;823.80;;;;;;;23.17;45.35;100714.28;20493749;28;21798;-70
2023/03/18 12:11:57;;;;;;;374.42;335.58;;;;;;;23.29;44.26;100701.03;20499243;28;20402;-71
2023/03/18 12:22:36;;;;;;;421.30;377.92;;;;;;;23.41;44.05;100701.84;20504072;28;20505;-76
2023/03/18 12:32:48;;;;;;;423.55;379.92;;;;;;;23.47;42.88;100681.06;20514628;28;20031;-73
2023/03/18 12:43:03;;;;;;;464.83;417.92;;;;;;;23.56;42.45;100674.16;20518794;28;20073;-74
2023/03/18 12:53:44;;;;;;;487.90;439.65;;;;;;;23.67;42.09;100676.75;20508741;28;20181;-75
2023/03/18 13:04:06;;;;;;;429.50;385.23;;;;;;;23.76;41.90;100679.59;20473257;28;20050;-74
2023/03/18 13:14:32;;;;;;;485.35;436.70;;;;;;;23.81;41.59;100678.25;20494303;28;20084;-71
2023/03/18 13:24:59;;;;;;;468.00;421.08;;;;;;;23.82;41.71;100671.13;20507785;28;20055;-69
2023/03/18 13:35:29;;;;;;;472.02;424.98;;;;;;;23.81;41.47;100669.47;20495764;28;20050;-72
2023/03/18 13:45:39;;;;;;;458.58;411.95;;;;;;;23.86;41.70;100656.69;20510474;28;20054;-73
2023/03/18 13:55:48;;;;;;;448.77;403.27;;;;;;;23.43;30.90;100657.66;20508066;28;20046;-72
2023/03/18 14:06:04;;;;;;;455.67;409.88;;;;;;;23.48;33.33;100631.66;20516445;28;20089;-72
2023/03/18 14:16:10;;;;;;;522.30;471.08;;;;;;;23.45;31.99;100629.31;20516434;28;20051;-72
2023/03/18 14:26:22;;;;;;;515.78;465.48;;;;;;;23.11;29.49;100614.38;20507290;28;20056;-73
2023/03/18 14:36:51;;;;;;;526.80;475.95;;;;;;;23.12;30.55;100602.00;20507655;28;20118;-72
2023/03/18 14:46:57;;;;;;;557.70;504.63;;;;;;;23.22;30.15;100594.19;20468698;28;20043;-73
2023/03/18 14:57:03;;;;;;;750.70;683.50;;;;;;;23.28;34.25;100589.25;20511748;28;20053;-73
2023/03/18 15:07:06;;;;;;;782.70;712.20;;;;;;;23.50;37.12;100583.00;20519949;28;20128;-73
2023/03/18 15:17:14;;;;;;;546.13;493.20;;;;;;;23.59;38.13;100596.41;20495172;28;20592;-75
2023/03/18 15:27:19;;;;;;;548.55;495.25;;;;;;;23.78;38.08;100591.25;20507528;28;20045;-73
2023/03/18 15:37:29;;;;;;;517.88;466.92;;;;;;;23.88;37.67;100588.63;20500004;28;20050;-75
2023/03/18 15:47:31;;;;;;;651.35;590.63;;;;;;;23.85;37.84;100598.66;20512466;28;20144;-73
2023/03/18 15:57:36;;;;;;;682.83;620.00;;;;;;;23.86;37.74;100606.44;20508688;28;20053;-73
2023/03/18 16:07:38;;;;;;;730.67;664.28;;;;;;;23.88;37.62;100608.97;20504624;28;20049;-74
2023/03/18 16:17:39;;;;;;;763.10;694.37;;;;;;;23.78;38.03;100619.50;20512483;28;20065;-74
2023/03/18 16:27:46;;;;;;;798.87;727.47;;;;;;;23.70;37.98;100620.13;20490021;28;20780;-74
2023/03/18 16:37:47;;;;;;;1221.25;999.90;;;;;;;23.63;38.24;100619.81;20497575;28;20301;-70
2023/03/18 16:47:50;;;;;;;1114.73;999.90;;;;;;;23.59;38.48;100622.84;20494175;28;20089;-71
2023/03/18 16:57:57;;;;;;;1174.28;999.90;;;;;;;23.53;38.71;100626.84;20491305;28;20133;-70
2023/03/18 17:07:57;;;;;;;703.72;639.92;;;;;;;23.44;39.01;100628.44;20489463;28;20047;-74
2023/03/18 17:17:58;;;;;;;570.42;516.40;;;;;;;23.42;39.42;100635.66;20500637;28;20092;-72
2023/03/18 17:28:04;;;;;;;555.95;503.02;;;;;;;23.35;40.00;100637.13;20501594;28;20093;-71
2023/03/18 17:38:06;;;;;;;568.42;514.70;;;;;;;23.32;39.97;100645.31;20516012;28;20110;-72
2023/03/18 17:48:09;;;;;;;557.60;504.42;;;;;;;23.26;40.48;100646.66;20514002;28;20043;-74
2023/03/18 17:58:18;;;;;;;543.85;491.08;;;;;;;23.27;40.17;100663.38;20525607;28;20051;-71
2023/03/18 18:08:20;;;;;;;570.83;517.30;;;;;;;23.25;40.28;100654.72;20525936;28;20065;-72
2023/03/18 18:18:25;;;;;;;;;;;;;;;23.22;40.11;100657.59;20522019;28;20086;-71
2023/03/18 18:28:32;;;;;;;575.20;521.35;;;;;;;23.21;40.15;100653.31;20510429;28;20297;-72
2023/03/18 18:38:33;;;;;;;701.65;638.63;;;;;;;23.07;39.66;100667.59;20513835;28;20053;-71
2023/03/18 18:48:36;;;;;;;709.33;646.08;;;;;;;22.91;34.97;100671.47;20501739;28;20043;-69
2023/03/18 18:58:38;;;;;;;818.25;747.13;;;;;;;22.80;39.15;100671.47;20523050;28;20177;-70
2023/03/18 19:08:40;;;;;;;1170.60;999.90;;;;;;;22.80;40.02;100664.41;20525750;28;20044;-70
2023/03/18 19:18:41;;;;;;;1174.90;999.90;;;;;;;22.78;40.69;100668.97;20523722;28;20047;-70
2023/03/18 19:38:46;;;;;;;1168.97;999.90;;;;;;;22.64;41.58;100678.00;20515888;28;20102;-70
2023/03/18 19:48:48;;;;;;;916.92;835.40;;;;;;;22.66;41.64;100681.34;20508784;28;20039;-70
2023/03/18 19:58:51;;;;;;;982.07;898.97;;;;;;;22.63;42.17;100684.25;20501572;28;20058;-70
2023/03/18 20:08:52;;;;;;;1081.65;988.90;;;;;;;22.57;41.41;100697.06;20503250;28;20401;-70
2023/03/18 20:18:53;;;;;;;614.78;558.15;;;;;;;22.59;41.42;100703.91;20521967;28;20046;-68
2023/03/18 20:28:55;;;;;;;643.85;585.50;;;;;;;22.49;42.21;100706.41;20518888;28;20615;-68
2023/03/18 20:38:56;;;;;;;656.28;597.15;;;;;;;22.44;41.96;100705.13;20500284;28;20058;-70
2023/03/18 20:48:56;;;;;;;689.30;627.67;;;;;;;22.36;42.26;100700.38;20520565;28;20050;-71
2023/03/18 20:58:58;;;;;;;753.13;687.05;;;;;;;22.34;42.75;100703.16;20504500;28;20438;-71
2023/03/18 21:08:59;;;;;;;739.90;674.60;;;;;;;22.33;43.02;100701.47;20514405;28;20042;-70
2023/03/18 21:19:01;;;;;;;759.25;692.53;;;;;;;22.28;43.46;100701.00;20496339;28;20082;-70
2023/03/18 21:29:02;;;;;;;837.10;765.43;;;;;;;22.22;43.77;100702.28;20508661;28;20415;-70
2023/03/18 21:39:03;;;;;;;971.40;891.55;;;;;;;22.18;44.13;100702.63;20511626;28;20081;-70
2023/03/18 21:49:03;;;;;;;1172.97;999.90;;;;;;;22.15;44.00;100702.88;20503388;28;20509;-71
2023/03/18 21:59:04;;;;;;;984.58;898.20;;;;;;;22.16;43.47;100699.28;20497691;28;20058;-71
2023/03/18 22:09:04;;;;;;;743.30;676.55;;;;;;;22.11;43.89;100699.66;20508793;28;20410;-73
2023/03/18 22:19:05;;;;;;;854.45;781.15;;;;;;;22.07;43.72;100704.31;20509860;28;20557;-72
2023/03/18 22:29:05;;;;;;;804.00;735.20;;;;;;;22.06;43.73;100712.34;20516895;28;20051;-72
2023/03/18 22:39:07;;;;;;;420.83;379.15;;;;;;;22.04;43.73;100720.34;20512278;28;20062;-71
2023/03/18 22:49:08;;;;;;;413.17;372.33;;;;;;;21.98;43.60;100705.00;20512476;28;20516;-71
2023/03/18 22:59:10;;;;;;;445.10;401.02;;;;;;;21.96;44.12;100714.84;20521398;28;20043;-71
2023/03/18 23:09:11;;;;;;;564.22;511.52;;;;;;;21.97;43.88;100731.50;20512584;28;20126;-72
2023/03/18 23:19:11;;;;;;;715.55;652.20;;;;;;;21.93;44.06;100725.59;20516584;28;20051;-70
2023/03/18 23:29:12;;;;;;;1063.78;978.25;;;;;;;21.95;44.03;100736.03;20504824;28;20043;-71
2023/03/18 23:39:12;;;;;;;940.35;860.42;;;;;;;21.92;43.87;100742.38;20511313;28;20047;-71
2023/03/18 23:49:13;;;;;;;650.13;591.42;;;;;;;21.91;44.23;100743.34;20512954;28;20054;-71
2023/03/18 23:59:13;;;;;;;925.80;848.72;;;;;;;21.88;44.29;100736.50;20509873;28;20057;-71
